Altus, Oklahoma
Current Conditions -  °F | °C
As of 7:58 AM on Thursday 23 Oct 2014 (Local Time) from KLTS Reporting Station
Moderate Fog Moderate Fog  
Wind Chill: 55°   Ceiling: 100
Heat Index: 55°   Visibility: 0mi
Dew Point: 55°   Wind: 2mph
Humidity: 100%   Direction: 130°SE
Pressure: 30.09"   Gusts: NA
Location:  34.64°N, 99.33°W
Report Text: KLTS 231258Z 13002KT M1/4SM R17R/0600FT FG VV001 13/13 A3009 RMK AO2A SLP185 T01290129 $
Loading
Personal Weather Stations






























Interactive Weather Map
Tropical Storm Tracking
New forecast layout! Learn more

10-Day Weather Forecast

Advertisements
Track Severe Weather on mobile